Pearl Of Scandinavia — OWFU2 — position and weather

sailwx.info

Track history (hours):
 
Tides and Currents Weather Stations Pressure Air Temp Water Temp Dewpoint Dewpoint Depression Visibility Wind Speed Wind Dir Waves Ship Positions

Pearl Of Scandinavia

Last reported at 2018-Sep-24 21:01 UTC. Time now 2018-Sep-24 21:01 UTC.
Position N 58°12' E 011°05'.

Length 176.4 m; beam 34 m; draft 6.215 m.

Type: Ship. MMSI: 219945000.

Date/timePositionNaut miles runAvg speedWind from/ knotsBaromVisibWave heightAir tempDewpointWater temp
2018-Sep-24 21:01N 58°12' E 011°05'816.1
2018-Sep-24 20:30N 58°19' E 011°00'716.5
2018-Sep-24 20:03N 58°27' E 010°57'116.4
2018-Sep-24 20:01N 58°27' E 010°56'816.7
2018-Sep-24 19:30N 58°35' E 010°52'816.9
2018-Sep-24 19:04N 58°43' E 010°48'117.4
2018-Sep-24 19:01N 58°44' E 010°48'917.6
2018-Sep-24 18:31N 58°52' E 010°45'817.7
2018-Sep-24 18:04N 58°60' E 010°42'117.7
2018-Sep-24 18:00N 59°01' E 010°41'918.4
2018-Sep-24 17:31N 59°10' E 010°38'818.5
2018-Sep-24 17:03N 59°18' E 010°36'118.4
2018-Sep-24 17:01N 59°19' E 010°35'917.9
2018-Sep-24 16:30N 59°28' E 010°34'817.1
2018-Sep-24 16:04N 59°35' E 010°38'117.4
2018-Sep-24 16:01N 59°36' E 010°38'714.4
2018-Sep-24 15:30N 59°43' E 010°34'716.2
2018-Sep-24 15:04N 59°51' E 010°35'116.7
2018-Sep-24 15:00N 59°51' E 010°36'510.4
2018-Sep-24 14:30N 59°54' E 010°45'0 0.0
2018-Sep-24 13:55N 59°54' E 010°45'0 0.0
2018-Sep-24 13:25N 59°54' E 010°45'0 0.0
2018-Sep-24 13:01N 59°54' E 010°45'0 0.0
2018-Sep-24 12:58N 59°54' E 010°45'0 0.0
2018-Sep-24 12:28N 59°54' E 010°45'0 0.0
2018-Sep-24 12:01N 59°54' E 010°45'0 0.0
2018-Sep-24 11:58N 59°54' E 010°45'0 0.0
2018-Sep-24 11:28N 59°54' E 010°45'0 0.0
2018-Sep-24 11:01N 59°54' E 010°45'0 0.0
2018-Sep-24 10:58N 59°54' E 010°45'0 0.0
2018-Sep-24 10:28N 59°54' E 010°45'0 0.0
2018-Sep-24 10:01N 59°54' E 010°45'0 0.0
2018-Sep-24 09:58N 59°54' E 010°45'0 0.0
2018-Sep-24 09:25N 59°54' E 010°45'0 0.0
2018-Sep-24 09:01N 59°54' E 010°45'0 0.0
2018-Sep-24 08:58N 59°54' E 010°45'0 0.0
2018-Sep-24 08:28N 59°54' E 010°45'0 0.0
2018-Sep-24 08:01N 59°54' E 010°45'0 0.0
2018-Sep-24 07:58N 59°54' E 010°45'0 0.3
2018-Sep-24 07:30N 59°54' E 010°44'612.6
2018-Sep-24 07:04N 59°50' E 010°36'115.7
2018-Sep-24 07:01N 59°50' E 010°35'714.6
2018-Sep-24 06:30N 59°42' E 010°36'613.5
2018-Sep-24 06:03N 59°36' E 010°38'115.3
2018-Sep-24 06:00N 59°35' E 010°38'714.9
2018-Sep-24 05:30N 59°28' E 010°34'714.5
2018-Sep-24 05:04N 59°22' E 010°35'114.8
2018-Sep-24 05:00N 59°21' E 010°35'714.7
2018-Sep-24 04:30N 59°14' E 010°38'715.1
2018-Sep-24 04:03N 59°07' E 010°40'114.9
2018-Sep-24 04:00N 59°06' E 010°40'815.7
2018-Sep-24 03:30N 58°59' E 010°42'716.2
2018-Sep-24 03:03N 58°52' E 010°46'116.0
2018-Sep-24 03:00N 58°51' E 010°46'816.1
2018-Sep-24 02:30N 58°43' E 010°49'716.1
2018-Sep-24 02:03N 58°36' E 010°51'116.0
2018-Sep-24 02:00N 58°35' E 010°52'816.7
2018-Sep-24 01:31N 58°27' E 010°55'817.4
2018-Sep-24 01:03N 58°19' E 010°60'117.5
2018-Sep-24 01:00N 58°18' E 011°00'917.4
2018-Sep-24 00:30N 58°10' E 011°06'717.0
2018-Sep-24 00:03N 58°03' E 011°10'117.1
2018-Sep-24 00:00N 58°02' E 011°10'816.5
2018-Sep-23 23:30N 57°54' E 011°15'816.8
2018-Sep-23 23:03N 57°47' E 011°20'116.8
2018-Sep-23 23:01N 57°46' E 011°20'917.3
2018-Sep-23 22:31N 57°38' E 011°27'817.4
2018-Sep-23 22:03N 57°31' E 011°32'117.3
2018-Sep-23 22:01N 57°30' E 011°33'917.2
2018-Sep-23 21:30N 57°23' E 011°41'817.0
2018-Sep-23 21:03N 57°17' E 011°49'116.8
2018-Sep-23 21:00N 57°16' E 011°50'816.5
2018-Sep-23 20:30N 57°08' E 011°57'816.4
2018-Sep-23 20:01N 57°01' E 012°02'016.4
2018-Sep-23 20:00N 57°01' E 012°02'5316.0
2018-Sep-23 16:42N 56°10' E 012°30'315.8
2018-Sep-23 16:30N 56°07' E 012°33'715.5
2018-Sep-23 16:03N 56°02' E 012°40'115.5
2018-Sep-23 16:00N 56°01' E 012°40'815.7
2018-Sep-23 15:30N 55°54' E 012°44'715.2
2018-Sep-23 15:04N 55°47' E 012°42'114.2
2018-Sep-23 15:00N 55°46' E 012°42'5 5.2
2018-Sep-23 14:00N 55°42' E 012°36'0 0.0
2018-Sep-23 13:27N 55°42' E 012°36'0 0.0
2018-Sep-23 13:03N 55°42' E 012°36'0 0.0
2018-Sep-23 13:00N 55°42' E 012°36'0 0.0
2018-Sep-23 12:30N 55°42' E 012°36'0 0.0
2018-Sep-23 12:03N 55°42' E 012°36'0 0.0
2018-Sep-23 12:00N 55°42' E 012°36'0 0.0
2018-Sep-23 11:30N 55°42' E 012°36'0 0.0
2018-Sep-23 11:03N 55°42' E 012°36'0 0.0
2018-Sep-23 11:00N 55°42' E 012°36'0 0.0
2018-Sep-23 10:30N 55°42' E 012°36'0 0.0
2018-Sep-23 10:03N 55°42' E 012°36'0 0.0
2018-Sep-23 10:00N 55°42' E 012°36'0 0.0
2018-Sep-23 09:30N 55°42' E 012°36'0 0.0
2018-Sep-23 09:03N 55°42' E 012°36'0 0.0
2018-Sep-23 09:00N 55°42' E 012°36'0 0.0
2018-Sep-23 08:30N 55°42' E 012°36'0 0.0
2018-Sep-23 08:03N 55°42' E 012°36'0 0.0
2018-Sep-23 07:54N 55°42' E 012°36'0 1.0
2018-Sep-23 07:31N 55°42' E 012°36'4 9.6
2018-Sep-23 07:03N 55°46' E 012°41'113.6
2018-Sep-23 07:00N 55°46' E 012°41'713.1
2018-Sep-23 06:30N 55°53' E 012°40'715.0
2018-Sep-23 06:03N 55°60' E 012°40'117.1
2018-Sep-23 06:00N 56°01' E 012°40'816.1
2018-Sep-23 05:30N 56°07' E 012°31'6617.2
2018-Sep-23 01:41N 57°06' E 011°37'518.1
2018-Sep-23 01:25N 57°10' E 011°34'718.3
2018-Sep-23 01:03N 57°16' E 011°30'118.2
2018-Sep-23 01:00N 57°17' E 011°29'918.3
2018-Sep-23 00:30N 57°26' E 011°22'817.4
2018-Sep-23 00:03N 57°32' E 011°13'117.8
2018-Sep-23 00:01N 57°32' E 011°12'917.9
2018-Sep-22 23:30N 57°39' E 011°00'817.9
2018-Sep-22 23:03N 57°45' E 010°51'118.4
2018-Sep-22 23:00N 57°46' E 010°51'917.8
2018-Sep-22 22:30N 57°55' E 010°49'817.0
2018-Sep-22 22:03N 58°02' E 010°47'116.5
2018-Sep-22 22:00N 58°03' E 010°47'816.4
2018-Sep-22 21:31N 58°11' E 010°45'715.8
2018-Sep-22 21:03N 58°18' E 010°43'115.7
2018-Sep-22 20:59N 58°19' E 010°43'715.1
2018-Sep-22 20:30N 58°27' E 010°42'715.2
2018-Sep-22 20:03N 58°34' E 010°40'112.9
2018-Sep-22 20:00N 58°34' E 010°40'714.3
2018-Sep-22 19:30N 58°41' E 010°38'715.6
2018-Sep-22 19:03N 58°48' E 010°37'115.5
2018-Sep-22 19:00N 58°49' E 010°37'816.4
2018-Sep-22 18:30N 58°57' E 010°35'816.8
2018-Sep-22 18:03N 59°05' E 010°36'117.1
2018-Sep-22 18:00N 59°05' E 010°36'817.0
2018-Sep-22 17:30N 59°14' E 010°37'817.6
2018-Sep-22 17:03N 59°22' E 010°34'117.9
2018-Sep-22 17:00N 59°23' E 010°34'917.3
2018-Sep-22 16:30N 59°31' E 010°35'816.8
2018-Sep-22 16:03N 59°39' E 010°37'114.6
2018-Sep-22 16:00N 59°40' E 010°37'714.7
2018-Sep-22 15:30N 59°47' E 010°33'715.9
2018-Sep-22 15:03N 59°53' E 010°40'113.5
2018-Sep-22 15:00N 59°54' E 010°41'2 3.9
2018-Sep-22 14:31N 59°54' E 010°45'0 0.0
2018-Sep-22 14:01N 59°54' E 010°45'0 0.0
2018-Sep-22 13:30N 59°54' E 010°45'0 0.0
2018-Sep-22 13:03N 59°54' E 010°45'0 0.0
2018-Sep-22 13:00N 59°54' E 010°45'0 0.0
2018-Sep-22 12:29N 59°54' E 010°45'0 0.0
2018-Sep-22 12:01N 59°54' E 010°45'0 0.4
2018-Sep-22 12:00N 59°54' E 010°45'1 1.9
2018-Sep-22 11:30N 59°54' E 010°43'613.3
2018-Sep-22 11:04N 59°49' E 010°35'114.7
2018-Sep-22 11:00N 59°49' E 010°35'714.0
2018-Sep-22 10:30N 59°42' E 010°36'612.5
2018-Sep-22 10:03N 59°36' E 010°38'112.2
2018-Sep-22 10:00N 59°35' E 010°38'714.5
2018-Sep-22 09:30N 59°29' E 010°34'715.5
2018-Sep-22 09:03N 59°22' E 010°35'116.8
2018-Sep-22 09:00N 59°21' E 010°36'817.0
2018-Sep-22 08:30N 59°12' E 010°39'716.0
2018-Sep-22 08:03N 59°05' E 010°40'114.9
2018-Sep-22 08:00N 59°05' E 010°40'714.9
2018-Sep-22 07:30N 58°57' E 010°42'715.2
2018-Sep-22 07:03N 58°50' E 010°43'115.7
2018-Sep-22 07:00N 58°50' E 010°43'815.9
2018-Sep-22 06:30N 58°42' E 010°44'716.3
2018-Sep-22 06:03N 58°34' E 010°47'116.4
2018-Sep-22 06:00N 58°34' E 010°47'816.6
2018-Sep-22 05:30N 58°26' E 010°52'716.6
2018-Sep-22 05:03N 58°18' E 010°55'116.3
2018-Sep-22 05:00N 58°18' E 010°56'816.5
2018-Sep-22 04:30N 58°09' E 010°57'716.2
2018-Sep-22 04:03N 58°02' E 010°56'115.0
2018-Sep-22 04:00N 58°01' E 010°56'815.5
2018-Sep-22 03:30N 57°54' E 010°53'816.6
2018-Sep-22 03:03N 57°47' E 010°48'115.1
2018-Sep-22 03:01N 57°46' E 010°48'5 9.7
2018-Sep-22 02:30N 57°41' E 010°50'4 8.6
2018-Sep-22 02:03N 57°41' E 010°57'0 8.5
2018-Sep-22 02:00N 57°41' E 010°58'5 9.7
2018-Sep-22 01:30N 57°39' E 011°06'511.8
2018-Sep-22 01:04N 57°35' E 011°14'111.7
2018-Sep-22 01:01N 57°35' E 011°14'611.9
2018-Sep-22 00:30N 57°31' E 011°22'511.5
2018-Sep-22 00:04N 57°27' E 011°28'112.1
2018-Sep-22 00:00N 57°26' E 011°28'611.8
2018-Sep-21 23:31N 57°21' E 011°32'512.0
2018-Sep-21 23:03N 57°15' E 011°35'112.0
2018-Sep-21 23:01N 57°15' E 011°35'612.1
2018-Sep-21 22:30N 57°09' E 011°39'511.8
2018-Sep-21 22:04N 57°04' E 011°43'112.0
2018-Sep-21 21:59N 57°03' E 011°43'6012.1
2018-Sep-21 16:59N 56°09' E 012°30'713.6
2018-Sep-21 16:30N 56°04' E 012°38'613.9
2018-Sep-21 16:03N 55°58' E 012°42'114.0
2018-Sep-21 16:00N 55°58' E 012°43'713.4
2018-Sep-21 15:31N 55°51' E 012°45'613.9
2018-Sep-21 15:03N 55°45' E 012°41'113.9
2018-Sep-21 15:00N 55°44' E 012°40'3 3.4
2018-Sep-21 14:00N 55°42' E 012°36'0 0.0
2018-Sep-21 13:30N 55°42' E 012°36'0 0.0
2018-Sep-21 13:03N 55°42' E 012°36'0 0.0
2018-Sep-21 13:00N 55°42' E 012°36'0 0.0
2018-Sep-21 12:30N 55°42' E 012°36'0 0.0
2018-Sep-21 12:00N 55°42' E 012°36'0 0.0
2018-Sep-21 11:30N 55°42' E 012°36'0 0.0
2018-Sep-21 11:03N 55°42' E 012°36'0 0.0
2018-Sep-21 11:00N 55°42' E 012°36'0 0.0
2018-Sep-21 10:15N 55°42' E 012°36'0 0.0
2018-Sep-21 10:03N 55°42' E 012°36'0 0.0
2018-Sep-21 09:54N 55°42' E 012°36'0 0.0
2018-Sep-21 09:27N 55°42' E 012°36'0 0.0
2018-Sep-21 08:51N 55°42' E 012°36'0 0.0
2018-Sep-21 08:21N 55°42' E 012°36'0 0.0
2018-Sep-21 08:03N 55°42' E 012°36'0 0.0
2018-Sep-21 07:58N 55°42' E 012°36'2 5.2
2018-Sep-21 07:30N 55°44' E 012°39'613.1
2018-Sep-21 07:03N 55°49' E 012°42'011.2
2018-Sep-21 07:01N 55°50' E 012°42'713.5
2018-Sep-21 06:31N 55°57' E 012°40'715.2
2018-Sep-21 06:04N 56°03' E 012°39'116.0
2018-Sep-21 06:00N 56°04' E 012°38'816.2
2018-Sep-21 05:30N 56°10' E 012°29'716.4
2018-Sep-21 05:04N 56°17' E 012°24'116.5
2018-Sep-21 05:01N 56°18' E 012°23'1316.7
2018-Sep-21 04:15N 56°30' E 012°15'816.7
2018-Sep-21 03:45N 56°38' E 012°12'816.9
2018-Sep-21 03:17N 56°45' E 012°07'3116.8
2018-Sep-21 01:27N 57°15' E 011°50'616.7
2018-Sep-21 01:04N 57°20' E 011°44'116.7
2018-Sep-21 01:00N 57°21' E 011°44'816.7
2018-Sep-21 00:30N 57°28' E 011°36'716.3
2018-Sep-21 00:03N 57°35' E 011°29'116.7
2018-Sep-21 00:01N 57°36' E 011°28'816.7
2018-Sep-20 23:30N 57°43' E 011°22'816.8
2018-Sep-20 23:04N 57°50' E 011°17'116.7
2018-Sep-20 23:01N 57°51' E 011°16'816.8
2018-Sep-20 22:31N 57°59' E 011°11'715.9
2018-Sep-20 22:04N 58°06' E 011°07'115.3
2018-Sep-20 22:01N 58°07' E 011°07'815.2
2018-Sep-20 21:31N 58°14' E 011°01'715.4
2018-Sep-20 21:04N 58°20' E 010°57'115.5
2018-Sep-20 21:01N 58°21' E 010°57'815.2
2018-Sep-20 20:31N 58°28' E 010°52'714.8
2018-Sep-20 20:03N 58°35' E 010°49'114.3
2018-Sep-20 20:00N 58°35' E 010°49'715.1
2018-Sep-20 19:30N 58°42' E 010°44'715.8
2018-Sep-20 19:03N 58°49' E 010°40'115.9
2018-Sep-20 19:00N 58°50' E 010°40'714.8
2018-Sep-20 18:31N 58°57' E 010°38'714.6
2018-Sep-20 18:04N 59°04' E 010°39'115.0
2018-Sep-20 18:01N 59°05' E 010°38'815.7
2018-Sep-20 17:31N 59°12' E 010°37'716.4
2018-Sep-20 17:03N 59°20' E 010°35'116.4
2018-Sep-20 17:01N 59°21' E 010°35'816.7
2018-Sep-20 16:31N 59°29' E 010°34'716.6
2018-Sep-20 16:04N 59°36' E 010°38'117.1
2018-Sep-20 16:01N 59°37' E 010°37'714.0
2018-Sep-20 15:30N 59°44' E 010°34'716.2
2018-Sep-20 15:03N 59°51' E 010°36'116.2
2018-Sep-20 15:00N 59°52' E 010°37'5 4.8
2018-Sep-20 14:01N 59°54' E 010°45'0 0.0
2018-Sep-20 13:58N 59°54' E 010°45'0 0.0
2018-Sep-20 13:28N 59°54' E 010°45'0 0.0
2018-Sep-20 13:01N 59°54' E 010°45'0 0.0
2018-Sep-20 12:58N 59°54' E 010°45'0 0.0
2018-Sep-20 12:28N 59°54' E 010°45'0 0.0
2018-Sep-20 12:01N 59°54' E 010°45'0 0.0
2018-Sep-20 11:58N 59°54' E 010°45'0 0.0
2018-Sep-20 11:28N 59°54' E 010°45'0 0.0
2018-Sep-20 11:01N 59°54' E 010°45'0 0.0
2018-Sep-20 10:58N 59°54' E 010°45'0 0.0
2018-Sep-20 10:28N 59°54' E 010°45'0 0.0
2018-Sep-20 10:01N 59°54' E 010°45'0 0.0
2018-Sep-20 09:58N 59°54' E 010°45'0 0.0
2018-Sep-20 09:28N 59°54' E 010°45'0 0.0
2018-Sep-20 09:01N 59°54' E 010°45'0 0.0
2018-Sep-20 08:58N 59°54' E 010°45'0 0.0
2018-Sep-20 08:28N 59°54' E 010°45'0 0.0
2018-Sep-20 08:01N 59°54' E 010°45'0 0.0
2018-Sep-20 07:58N 59°54' E 010°45'0 0.5
2018-Sep-20 07:30N 59°54' E 010°44'612.8
2018-Sep-20 07:03N 59°50' E 010°36'115.5
2018-Sep-20 07:00N 59°49' E 010°35'714.8
2018-Sep-20 06:30N 59°42' E 010°36'714.5
2018-Sep-20 06:04N 59°36' E 010°38'117.2
2018-Sep-20 06:01N 59°35' E 010°38'917.0
2018-Sep-20 05:31N 59°27' E 010°34'817.0
2018-Sep-20 05:03N 59°19' E 010°36'117.7
2018-Sep-20 05:01N 59°18' E 010°36'917.5
2018-Sep-20 04:30N 59°09' E 010°39'716.3
2018-Sep-20 04:04N 59°02' E 010°41'115.9
2018-Sep-20 04:01N 59°01' E 010°41'815.4
2018-Sep-20 03:31N 58°54' E 010°42'715.0
2018-Sep-20 03:03N 58°47' E 010°43'115.1
2018-Sep-20 03:01N 58°46' E 010°44'816.0
2018-Sep-20 02:31N 58°38' E 010°45'716.5
2018-Sep-20 02:03N 58°31' E 010°46'116.2
2018-Sep-20 02:01N 58°30' E 010°46'816.1
2018-Sep-20 01:31N 58°22' E 010°48'816.2
2018-Sep-20 01:02N 58°14' E 010°49'116.2
2018-Sep-20 01:00N 58°14' E 010°49'816.7
2018-Sep-20 00:30N 58°06' E 010°51'816.8
2018-Sep-20 00:03N 57°58' E 010°52'116.5
2018-Sep-20 00:01N 57°57' E 010°52'816.8
2018-Sep-19 23:31N 57°49' E 010°54'715.7
2018-Sep-19 23:04N 57°42' E 010°58'115.9
2018-Sep-19 23:01N 57°42' E 010°59'815.6
2018-Sep-19 22:31N 57°36' E 011°10'715.9
2018-Sep-19 22:04N 57°32' E 011°20'116.1
2018-Sep-19 22:01N 57°31' E 011°21'816.0
2018-Sep-19 21:31N 57°24' E 011°29'716.6
2018-Sep-19 21:04N 57°17' E 011°34'116.9
2018-Sep-19 21:01N 57°17' E 011°34'817.0
2018-Sep-19 20:31N 57°09' E 011°40'716.4
2018-Sep-19 20:03N 57°02' E 011°45'117.0
2018-Sep-19 20:00N 57°01' E 011°45'816.8
2018-Sep-19 19:31N 56°53' E 011°50'4816.2
2018-Sep-19 16:32N 56°10' E 012°30'116.8
2018-Sep-19 16:28N 56°09' E 012°31'716.6
2018-Sep-19 16:03N 56°04' E 012°39'116.3
2018-Sep-19 16:01N 56°03' E 012°39'816.7
2018-Sep-19 15:31N 55°55' E 012°44'716.5
2018-Sep-19 15:04N 55°48' E 012°43'115.9
2018-Sep-19 15:01N 55°47' E 012°42'6 6.6
2018-Sep-19 14:03N 55°42' E 012°36'0 0.0
2018-Sep-19 13:28N 55°42' E 012°36'0 0.0
2018-Sep-19 13:01N 55°42' E 012°36'0 0.0
2018-Sep-19 12:58N 55°42' E 012°36'0 0.0
2018-Sep-19 12:28N 55°42' E 012°36'0 0.0
2018-Sep-19 12:01N 55°42' E 012°36'0 0.0
2018-Sep-19 11:55N 55°42' E 012°36'0 0.0
2018-Sep-19 11:28N 55°42' E 012°36'0 0.0
2018-Sep-19 11:01N 55°42' E 012°36'0 0.0
2018-Sep-19 10:58N 55°42' E 012°36'0 0.0
2018-Sep-19 10:28N 55°42' E 012°36'0 0.0
2018-Sep-19 10:01N 55°42' E 012°36'0 0.0
2018-Sep-19 09:58N 55°42' E 012°36'0 0.0
2018-Sep-19 09:28N 55°42' E 012°36'0 0.0
2018-Sep-19 08:58N 55°42' E 012°36'0 0.0
2018-Sep-19 08:28N 55°42' E 012°36'0 0.0
2018-Sep-19 08:01N 55°42' E 012°36'0 0.0
2018-Sep-19 07:58N 55°42' E 012°36'0 0.8
2018-Sep-19 07:31N 55°42' E 012°36'510.8
2018-Sep-19 07:03N 55°46' E 012°41'114.6
2018-Sep-19 07:00N 55°47' E 012°42'714.9
2018-Sep-19 06:30N 55°54' E 012°39'715.3
2018-Sep-19 06:03N 56°01' E 012°40'116.7
2018-Sep-19 06:00N 56°02' E 012°39'816.3
2018-Sep-19 05:30N 56°08' E 012°30'716.2
2018-Sep-19 05:03N 56°15' E 012°25'116.1
2018-Sep-19 05:00N 56°16' E 012°25'6016.7
2018-Sep-19 01:24N 57°13' E 011°53'617.8
2018-Sep-19 01:03N 57°18' E 011°45'117.7
2018-Sep-19 01:00N 57°19' E 011°44'917.9
2018-Sep-19 00:30N 57°26' E 011°34'817.9
2018-Sep-19 00:03N 57°32' E 011°25'117.6
2018-Sep-19 00:00N 57°33' E 011°24'917.9
2018-Sep-18 23:30N 57°40' E 011°14'817.6
2018-Sep-18 23:03N 57°47' E 011°06'117.2
2018-Sep-18 23:00N 57°48' E 011°06'816.8
2018-Sep-18 22:30N 57°56' E 011°00'716.6
2018-Sep-18 22:03N 58°03' E 010°56'116.1
2018-Sep-18 22:00N 58°04' E 010°55'816.2
2018-Sep-18 21:30N 58°11' E 010°50'716.1
2018-Sep-18 21:03N 58°18' E 010°45'116.2
2018-Sep-18 21:00N 58°19' E 010°45'815.9
2018-Sep-18 20:30N 58°26' E 010°39'715.0
2018-Sep-18 20:03N 58°33' E 010°39'114.5
2018-Sep-18 20:00N 58°34' E 010°39'714.9
2018-Sep-18 19:30N 58°41' E 010°38'715.6
2018-Sep-18 19:03N 58°48' E 010°37'115.7
2018-Sep-18 19:00N 58°49' E 010°37'815.8
2018-Sep-18 18:30N 58°57' E 010°38'716.1
2018-Sep-18 18:03N 59°04' E 010°38'116.1
2018-Sep-18 18:00N 59°05' E 010°38'815.8
2018-Sep-18 17:30N 59°13' E 010°37'716.2
2018-Sep-18 17:03N 59°20' E 010°35'116.7
2018-Sep-18 17:00N 59°21' E 010°35'816.3
2018-Sep-18 16:30N 59°29' E 010°34'716.2
2018-Sep-18 16:03N 59°36' E 010°38'116.7
2018-Sep-18 16:00N 59°37' E 010°37'713.9
2018-Sep-18 15:30N 59°44' E 010°34'715.8
2018-Sep-18 15:04N 59°51' E 010°35'116.6
2018-Sep-18 15:01N 59°51' E 010°36'5 5.3
2018-Sep-18 14:01N 59°54' E 010°45'0 0.0
2018-Sep-18 13:58N 59°54' E 010°45'0 0.0
2018-Sep-18 13:28N 59°54' E 010°45'0 0.0
2018-Sep-18 13:01N 59°54' E 010°45'0 0.0
2018-Sep-18 12:58N 59°54' E 010°45'0 0.0
2018-Sep-18 12:28N 59°54' E 010°45'0 0.0
2018-Sep-18 12:01N 59°54' E 010°45'0 0.0
2018-Sep-18 11:58N 59°54' E 010°45'0 0.0
2018-Sep-18 11:28N 59°54' E 010°45'0 0.0
2018-Sep-18 11:01N 59°54' E 010°45'0 0.0
2018-Sep-18 10:58N 59°54' E 010°45'0 0.0
2018-Sep-18 10:28N 59°54' E 010°45'0 0.0
2018-Sep-18 10:01N 59°54' E 010°45'0 0.0
2018-Sep-18 09:58N 59°54' E 010°45'0 0.0
2018-Sep-18 09:28N 59°54' E 010°45'0 0.0
2018-Sep-18 09:01N 59°54' E 010°45'0 0.0
2018-Sep-18 08:58N 59°54' E 010°45'0 0.0
2018-Sep-18 08:28N 59°54' E 010°45'0 0.0
2018-Sep-18 08:01N 59°54' E 010°45'0 0.1
2018-Sep-18 07:58N 59°54' E 010°45'0 0.4
2018-Sep-18 07:30N 59°54' E 010°44'613.3
2018-Sep-18 07:03N 59°50' E 010°36'115.7
2018-Sep-18 07:00N 59°49' E 010°35'714.8
2018-Sep-18 06:30N 59°42' E 010°36'613.8
2018-Sep-18 06:03N 59°36' E 010°38'115.5
2018-Sep-18 06:00N 59°35' E 010°38'815.4
2018-Sep-18 05:30N 59°28' E 010°34'715.6
2018-Sep-18 05:03N 59°21' E 010°36'116.2
2018-Sep-18 05:00N 59°20' E 010°36'816.2
2018-Sep-18 04:30N 59°12' E 010°39'716.1
2018-Sep-18 04:03N 59°05' E 010°41'116.1
2018-Sep-18 04:00N 59°04' E 010°41'816.1
2018-Sep-18 03:30N 58°56' E 010°43'715.8
2018-Sep-18 03:03N 58°49' E 010°46'115.9
2018-Sep-18 03:00N 58°48' E 010°46'816.0
2018-Sep-18 02:30N 58°40' E 010°48'716.2
2018-Sep-18 02:03N 58°33' E 010°51'116.5
2018-Sep-18 02:00N 58°32' E 010°51'816.5
2018-Sep-18 01:30N 58°24' E 010°56'816.7
2018-Sep-18 01:03N 58°17' E 011°01'117.0
2018-Sep-18 01:00N 58°16' E 011°01'917.1
2018-Sep-18 00:29N 58°08' E 011°06'716.9
2018-Sep-18 00:03N 58°01' E 011°11'116.6
2018-Sep-18 00:00N 58°00' E 011°11'816.5
2018-Sep-17 23:29N 57°52' E 011°16'716.5
2018-Sep-17 23:03N 57°45' E 011°21'116.7
2018-Sep-17 23:00N 57°45' E 011°22'816.3
2018-Sep-17 22:30N 57°37' E 011°28'716.1
2018-Sep-17 22:03N 57°31' E 011°33'116.0
2018-Sep-17 22:00N 57°30' E 011°33'815.6
2018-Sep-17 21:30N 57°23' E 011°41'816.3
2018-Sep-17 21:03N 57°17' E 011°49'115.9
2018-Sep-17 21:00N 57°16' E 011°49'816.3
2018-Sep-17 20:30N 57°09' E 011°56'716.3
2018-Sep-17 20:03N 57°02' E 012°01'116.1
2018-Sep-17 20:00N 57°02' E 012°02'815.9
2018-Sep-17 19:30N 56°54' E 012°08'716.2
2018-Sep-17 19:03N 56°47' E 012°12'116.1
2018-Sep-17 19:00N 56°46' E 012°12'816.1
2018-Sep-17 18:30N 56°39' E 012°15'3015.7
2018-Sep-17 16:35N 56°10' E 012°31'415.2
2018-Sep-17 16:21N 56°07' E 012°34'414.3
2018-Sep-17 16:03N 56°03' E 012°39'113.7
2018-Sep-17 16:00N 56°03' E 012°40'714.4
2018-Sep-17 15:31N 55°56' E 012°43'715.0
2018-Sep-17 15:04N 55°49' E 012°44'115.0
2018-Sep-17 15:01N 55°49' E 012°43'713.5
2018-Sep-17 14:30N 55°43' E 012°37'1 1.8
2018-Sep-17 13:59N 55°42' E 012°36'0 0.0
2018-Sep-17 13:29N 55°42' E 012°36'0 0.0
2018-Sep-17 12:56N 55°42' E 012°36'0 0.0
2018-Sep-17 12:29N 55°42' E 012°36'0 0.0
2018-Sep-17 12:02N 55°42' E 012°36'0 0.0
2018-Sep-17 11:56N 55°42' E 012°36'0 0.0
2018-Sep-17 11:29N 55°42' E 012°36'0 0.0
2018-Sep-17 11:02N 55°42' E 012°36'0 0.0
2018-Sep-17 10:59N 55°42' E 012°36'0 0.0
2018-Sep-17 10:29N 55°42' E 012°36'0 0.0
2018-Sep-17 09:56N 55°42' E 012°36'0 0.0
2018-Sep-17 09:29N 55°42' E 012°36'0 0.0
2018-Sep-17 09:02N 55°42' E 012°36'0 0.0
2018-Sep-17 08:59N 55°42' E 012°36'0 0.0
2018-Sep-17 08:29N 55°42' E 012°36'0 0.0
2018-Sep-17 08:02N 55°42' E 012°36'0 0.0
2018-Sep-17 07:59N 55°42' E 012°36'0 0.8
2018-Sep-17 07:31N 55°42' E 012°36'510.4
2018-Sep-17 07:03N 55°46' E 012°41'114.1
2018-Sep-17 07:00N 55°47' E 012°41'714.1
2018-Sep-17 06:30N 55°54' E 012°39'715.0
2018-Sep-17 06:03N 56°00' E 012°40'115.3
2018-Sep-17 06:00N 56°01' E 012°40'714.7
2018-Sep-17 05:30N 56°07' E 012°31'715.4
2018-Sep-17 05:03N 56°13' E 012°26'215.5
2018-Sep-17 04:57N 56°15' E 012°25'6015.5
2018-Sep-17 01:06N 57°12' E 011°52'116.1
2018-Sep-17 01:03N 57°13' E 011°52'216.0
2018-Sep-17 00:55N 57°14' E 011°50'716.3
2018-Sep-17 00:31N 57°20' E 011°44'817.1
2018-Sep-17 00:03N 57°27' E 011°36'117.4
2018-Sep-17 00:01N 57°28' E 011°35'917.3
2018-Sep-16 23:31N 57°35' E 011°28'817.4
2018-Sep-16 23:04N 57°42' E 011°22'117.4
2018-Sep-16 23:01N 57°43' E 011°21'917.2
2018-Sep-16 22:30N 57°51' E 011°15'816.9
2018-Sep-16 22:03N 57°58' E 011°12'116.9
2018-Sep-16 22:00N 57°59' E 011°11'816.6
2018-Sep-16 21:30N 58°07' E 011°07'715.9
2018-Sep-16 21:03N 58°14' E 011°03'115.8
2018-Sep-16 21:00N 58°15' E 011°03'815.4
2018-Sep-16 20:30N 58°22' E 010°58'715.2
2018-Sep-16 20:02N 58°29' E 010°55'115.3
2018-Sep-16 20:00N 58°30' E 010°54'815.5
2018-Sep-16 19:30N 58°37' E 010°50'715.4
2018-Sep-16 19:04N 58°44' E 010°47'115.2
2018-Sep-16 19:01N 58°44' E 010°47'815.2
2018-Sep-16 18:31N 58°52' E 010°44'715.6
2018-Sep-16 18:04N 58°59' E 010°42'115.8
2018-Sep-16 18:01N 58°60' E 010°42'816.1
2018-Sep-16 17:30N 59°08' E 010°39'816.8
2018-Sep-16 17:03N 59°15' E 010°37'117.1
2018-Sep-16 17:00N 59°16' E 010°36'816.5
2018-Sep-16 16:30N 59°24' E 010°33'716.1
2018-Sep-16 16:03N 59°31' E 010°35'116.8
2018-Sep-16 16:00N 59°32' E 010°36'815.8
2018-Sep-16 15:30N 59°40' E 010°37'715.1
2018-Sep-16 15:03N 59°46' E 010°33'117.2
2018-Sep-16 15:00N 59°47' E 010°34'9 9.0
2018-Sep-16 14:01N 59°54' E 010°45'0 0.0
2018-Sep-16 13:28N 59°54' E 010°45'0 0.0
2018-Sep-16 13:01N 59°54' E 010°45'0 0.0
2018-Sep-16 12:58N 59°54' E 010°45'0 0.0
2018-Sep-16 12:28N 59°54' E 010°45'0 0.0
2018-Sep-16 12:01N 59°54' E 010°45'0 0.0
2018-Sep-16 11:58N 59°54' E 010°45'0 0.0
2018-Sep-16 11:28N 59°54' E 010°45'0 0.0
2018-Sep-16 11:01N 59°54' E 010°45'0 0.0
2018-Sep-16 10:58N 59°54' E 010°45'0 0.0
2018-Sep-16 10:28N 59°54' E 010°45'0 0.0
2018-Sep-16 10:01N 59°54' E 010°45'0 0.0
2018-Sep-16 09:58N 59°54' E 010°45'0 0.0
2018-Sep-16 09:28N 59°54' E 010°45'0 0.0
2018-Sep-16 09:01N 59°54' E 010°45'0 0.0
2018-Sep-16 08:58N 59°54' E 010°45'0 0.0
2018-Sep-16 08:28N 59°54' E 010°45'0 0.0
2018-Sep-16 08:01N 59°54' E 010°45'0 0.0
2018-Sep-16 07:58N 59°54' E 010°45'1 1.4
2018-Sep-16 07:28N 59°54' E 010°43'613.7
2018-Sep-16 07:04N 59°50' E 010°36'115.2
2018-Sep-16 07:01N 59°49' E 010°35'714.6
2018-Sep-16 06:31N 59°42' E 010°36'613.7
2018-Sep-16 06:03N 59°36' E 010°38'115.8
2018-Sep-16 06:00N 59°35' E 010°38'815.9
2018-Sep-16 05:30N 59°27' E 010°34'715.8
2018-Sep-16 05:03N 59°20' E 010°36'116.0
2018-Sep-16 05:00N 59°19' E 010°36'816.0
2018-Sep-16 04:31N 59°12' E 010°39'715.6
2018-Sep-16 04:03N 59°05' E 010°41'115.7
2018-Sep-16 04:00N 59°04' E 010°41'816.1
2018-Sep-16 03:30N 58°56' E 010°43'715.7
2018-Sep-16 03:03N 58°49' E 010°44'115.9
2018-Sep-16 03:01N 58°48' E 010°45'815.8
2018-Sep-16 02:30N 58°40' E 010°47'715.8
2018-Sep-16 02:03N 58°33' E 010°50'116.0
2018-Sep-16 02:00N 58°33' E 010°51'816.3
2018-Sep-16 01:30N 58°25' E 010°56'716.3
2018-Sep-16 01:03N 58°18' E 010°60'116.7
2018-Sep-16 01:00N 58°17' E 011°00'817.0
2018-Sep-16 00:30N 58°09' E 011°05'816.8
2018-Sep-16 00:03N 58°02' E 011°09'116.3
2018-Sep-16 00:00N 58°01' E 011°10'816.1
2018-Sep-15 23:30N 57°53' E 011°14'716.2
2018-Sep-15 23:03N 57°46' E 011°18'115.8
2018-Sep-15 23:00N 57°46' E 011°19'815.9
2018-Sep-15 22:30N 57°38' E 011°23'715.8
2018-Sep-15 22:03N 57°31' E 011°27'116.1
2018-Sep-15 22:00N 57°30' E 011°27'816.0
2018-Sep-15 21:30N 57°23' E 011°32'716.1
2018-Sep-15 21:03N 57°16' E 011°36'116.3
2018-Sep-15 21:00N 57°15' E 011°36'816.4
2018-Sep-15 20:30N 57°07' E 011°41'816.5
2018-Sep-15 20:02N 56°60' E 011°46'5516.3
2018-Sep-15 16:38N 56°10' E 012°30'316.6
2018-Sep-15 16:28N 56°08' E 012°33'615.5
2018-Sep-15 16:04N 56°03' E 012°40'114.7
2018-Sep-15 16:01N 56°02' E 012°40'815.0
2018-Sep-15 15:30N 55°55' E 012°44'714.0
2018-Sep-15 15:00N 55°48' E 012°43'7 7.1
2018-Sep-15 14:00N 55°42' E 012°36'0 0.0
2018-Sep-15 13:27N 55°42' E 012°36'0 0.0
2018-Sep-15 13:03N 55°42' E 012°36'0 0.0
2018-Sep-15 13:00N 55°42' E 012°36'0 0.0
2018-Sep-15 12:30N 55°42' E 012°36'0 0.0
2018-Sep-15 12:00N 55°42' E 012°36'0 0.0
2018-Sep-15 11:30N 55°42' E 012°36'0 0.0
2018-Sep-15 11:00N 55°42' E 012°36'0 0.0
2018-Sep-15 10:30N 55°42' E 012°36'0 0.0
2018-Sep-15 10:03N 55°42' E 012°36'0 0.0
2018-Sep-15 10:00N 55°42' E 012°36'0 0.0
2018-Sep-15 09:30N 55°42' E 012°36'0 0.0
2018-Sep-15 09:03N 55°42' E 012°36'0 0.0
2018-Sep-15 09:00N 55°42' E 012°36'0 0.0
2018-Sep-15 08:30N 55°42' E 012°36'0 0.0
2018-Sep-15 08:03N 55°42' E 012°36'0 0.0
2018-Sep-15 08:00N 55°42' E 012°36'0 0.7
2018-Sep-15 07:30N 55°42' E 012°36'511.7
2018-Sep-15 07:03N 55°47' E 012°41'115.6
2018-Sep-15 07:00N 55°47' E 012°42'815.0
2018-Sep-15 06:30N 55°55' E 012°39'715.5
2018-Sep-15 06:04N 56°02' E 012°40'116.1
2018-Sep-15 06:01N 56°03' E 012°39'816.5
2018-Sep-15 05:30N 56°09' E 012°30'716.2
2018-Sep-15 05:03N 56°16' E 012°25'116.3
2018-Sep-15 05:00N 56°16' E 012°24'6017.1
2018-Sep-15 01:30N 57°14' E 011°52'818.3
2018-Sep-15 01:03N 57°20' E 011°44'118.5
2018-Sep-15 01:00N 57°21' E 011°43'918.4
2018-Sep-15 00:30N 57°29' E 011°33'818.0
2018-Sep-15 00:03N 57°36' E 011°25'117.5
2018-Sep-15 00:00N 57°37' E 011°25'917.1
2018-Sep-14 23:30N 57°45' E 011°21'817.0
2018-Sep-14 23:03N 57°52' E 011°15'116.5
2018-Sep-14 23:00N 57°53' E 011°15'815.9
2018-Sep-14 22:30N 58°00' E 011°11'715.0
2018-Sep-14 22:03N 58°07' E 011°07'114.8
2018-Sep-14 22:00N 58°08' E 011°07'714.6
2018-Sep-14 21:30N 58°14' E 011°02'613.6
2018-Sep-14 21:03N 58°20' E 010°60'113.4
2018-Sep-14 21:00N 58°21' E 010°59'  
Track history (hours):
 
Tides and Currents Weather Stations Pressure Air Temp Water Temp Dewpoint Dewpoint Depression Visibility Wind Speed Wind Dir Waves Ship Positions

Pearl Of Scandinavia

Last reported at 2018-Sep-24 21:01 UTC. Time now 2018-Sep-24 21:01 UTC.
Position N 58°12' E 011°05'.

Length 176.4 m; beam 34 m; draft 6.215 m.

Type: Ship. MMSI: 219945000.

Date/timePositionNaut miles runAvg speedWind from/ knotsBaromVisibWave heightAir tempDewpointWater temp
2018-Sep-24 21:01N 58°12' E 011°05'816.1
2018-Sep-24 20:30N 58°19' E 011°00'716.5
2018-Sep-24 20:03N 58°27' E 010°57'116.4
2018-Sep-24 20:01N 58°27' E 010°56'816.7
2018-Sep-24 19:30N 58°35' E 010°52'816.9
2018-Sep-24 19:04N 58°43' E 010°48'117.4
2018-Sep-24 19:01N 58°44' E 010°48'917.6
2018-Sep-24 18:31N 58°52' E 010°45'817.7
2018-Sep-24 18:04N 58°60' E 010°42'117.7
2018-Sep-24 18:00N 59°01' E 010°41'918.4
2018-Sep-24 17:31N 59°10' E 010°38'818.5
2018-Sep-24 17:03N 59°18' E 010°36'118.4
2018-Sep-24 17:01N 59°19' E 010°35'917.9
2018-Sep-24 16:30N 59°28' E 010°34'817.1
2018-Sep-24 16:04N 59°35' E 010°38'117.4
2018-Sep-24 16:01N 59°36' E 010°38'714.4
2018-Sep-24 15:30N 59°43' E 010°34'716.2
2018-Sep-24 15:04N 59°51' E 010°35'116.7
2018-Sep-24 15:00N 59°51' E 010°36'510.4
2018-Sep-24 14:30N 59°54' E 010°45'0 0.0
2018-Sep-24 13:55N 59°54' E 010°45'0 0.0
2018-Sep-24 13:25N 59°54' E 010°45'0 0.0
2018-Sep-24 13:01N 59°54' E 010°45'0 0.0
2018-Sep-24 12:58N 59°54' E 010°45'0 0.0
2018-Sep-24 12:28N 59°54' E 010°45'0 0.0
2018-Sep-24 12:01N 59°54' E 010°45'0 0.0
2018-Sep-24 11:58N 59°54' E 010°45'0 0.0
2018-Sep-24 11:28N 59°54' E 010°45'0 0.0
2018-Sep-24 11:01N 59°54' E 010°45'0 0.0
2018-Sep-24 10:58N 59°54' E 010°45'0 0.0
2018-Sep-24 10:28N 59°54' E 010°45'0 0.0
2018-Sep-24 10:01N 59°54' E 010°45'0 0.0
2018-Sep-24 09:58N 59°54' E 010°45'0 0.0
2018-Sep-24 09:25N 59°54' E 010°45'0 0.0
2018-Sep-24 09:01N 59°54' E 010°45'0 0.0
2018-Sep-24 08:58N 59°54' E 010°45'0 0.0
2018-Sep-24 08:28N 59°54' E 010°45'0 0.0
2018-Sep-24 08:01N 59°54' E 010°45'0 0.0
2018-Sep-24 07:58N 59°54' E 010°45'0 0.3
2018-Sep-24 07:30N 59°54' E 010°44'612.6
2018-Sep-24 07:04N 59°50' E 010°36'115.7
2018-Sep-24 07:01N 59°50' E 010°35'714.6
2018-Sep-24 06:30N 59°42' E 010°36'613.5
2018-Sep-24 06:03N 59°36' E 010°38'115.3
2018-Sep-24 06:00N 59°35' E 010°38'714.9
2018-Sep-24 05:30N 59°28' E 010°34'714.5
2018-Sep-24 05:04N 59°22' E 010°35'114.8
2018-Sep-24 05:00N 59°21' E 010°35'714.7
2018-Sep-24 04:30N 59°14' E 010°38'715.1
2018-Sep-24 04:03N 59°07' E 010°40'114.9
2018-Sep-24 04:00N 59°06' E 010°40'815.7
2018-Sep-24 03:30N 58°59' E 010°42'716.2
2018-Sep-24 03:03N 58°52' E 010°46'116.0
2018-Sep-24 03:00N 58°51' E 010°46'816.1
2018-Sep-24 02:30N 58°43' E 010°49'716.1
2018-Sep-24 02:03N 58°36' E 010°51'116.0
2018-Sep-24 02:00N 58°35' E 010°52'816.7
2018-Sep-24 01:31N 58°27' E 010°55'817.4
2018-Sep-24 01:03N 58°19' E 010°60'117.5
2018-Sep-24 01:00N 58°18' E 011°00'917.4
2018-Sep-24 00:30N 58°10' E 011°06'717.0
2018-Sep-24 00:03N 58°03' E 011°10'117.1
2018-Sep-24 00:00N 58°02' E 011°10'816.5
2018-Sep-23 23:30N 57°54' E 011°15'816.8
2018-Sep-23 23:03N 57°47' E 011°20'116.8
2018-Sep-23 23:01N 57°46' E 011°20'917.3
2018-Sep-23 22:31N 57°38' E 011°27'817.4
2018-Sep-23 22:03N 57°31' E 011°32'117.3
2018-Sep-23 22:01N 57°30' E 011°33'917.2
2018-Sep-23 21:30N 57°23' E 011°41'817.0
2018-Sep-23 21:03N 57°17' E 011°49'116.8
2018-Sep-23 21:00N 57°16' E 011°50'816.5
2018-Sep-23 20:30N 57°08' E 011°57'816.4
2018-Sep-23 20:01N 57°01' E 012°02'016.4
2018-Sep-23 20:00N 57°01' E 012°02'5316.0
2018-Sep-23 16:42N 56°10' E 012°30'315.8
2018-Sep-23 16:30N 56°07' E 012°33'715.5
2018-Sep-23 16:03N 56°02' E 012°40'115.5
2018-Sep-23 16:00N 56°01' E 012°40'815.7
2018-Sep-23 15:30N 55°54' E 012°44'715.2
2018-Sep-23 15:04N 55°47' E 012°42'114.2
2018-Sep-23 15:00N 55°46' E 012°42'5 5.2
2018-Sep-23 14:00N 55°42' E 012°36'0 0.0
2018-Sep-23 13:27N 55°42' E 012°36'0 0.0
2018-Sep-23 13:03N 55°42' E 012°36'0 0.0
2018-Sep-23 13:00N 55°42' E 012°36'0 0.0
2018-Sep-23 12:30N 55°42' E 012°36'0 0.0
2018-Sep-23 12:03N 55°42' E 012°36'0 0.0
2018-Sep-23 12:00N 55°42' E 012°36'0 0.0
2018-Sep-23 11:30N 55°42' E 012°36'0 0.0
2018-Sep-23 11:03N 55°42' E 012°36'0 0.0
2018-Sep-23 11:00N 55°42' E 012°36'0 0.0
2018-Sep-23 10:30N 55°42' E 012°36'0 0.0
2018-Sep-23 10:03N 55°42' E 012°36'0 0.0
2018-Sep-23 10:00N 55°42' E 012°36'0 0.0
2018-Sep-23 09:30N 55°42' E 012°36'0 0.0
2018-Sep-23 09:03N 55°42' E 012°36'0 0.0
2018-Sep-23 09:00N 55°42' E 012°36'0 0.0
2018-Sep-23 08:30N 55°42' E 012°36'0 0.0
2018-Sep-23 08:03N 55°42' E 012°36'0 0.0
2018-Sep-23 07:54N 55°42' E 012°36'0 1.0
2018-Sep-23 07:31N 55°42' E 012°36'4 9.6
2018-Sep-23 07:03N 55°46' E 012°41'113.6
2018-Sep-23 07:00N 55°46' E 012°41'713.1
2018-Sep-23 06:30N 55°53' E 012°40'715.0
2018-Sep-23 06:03N 55°60' E 012°40'117.1
2018-Sep-23 06:00N 56°01' E 012°40'816.1
2018-Sep-23 05:30N 56°07' E 012°31'6617.2
2018-Sep-23 01:41N 57°06' E 011°37'518.1
2018-Sep-23 01:25N 57°10' E 011°34'718.3
2018-Sep-23 01:03N 57°16' E 011°30'118.2
2018-Sep-23 01:00N 57°17' E 011°29'918.3
2018-Sep-23 00:30N 57°26' E 011°22'817.4
2018-Sep-23 00:03N 57°32' E 011°13'117.8
2018-Sep-23 00:01N 57°32' E 011°12'917.9
2018-Sep-22 23:30N 57°39' E 011°00'817.9
2018-Sep-22 23:03N 57°45' E 010°51'118.4
2018-Sep-22 23:00N 57°46' E 010°51'917.8
2018-Sep-22 22:30N 57°55' E 010°49'817.0
2018-Sep-22 22:03N 58°02' E 010°47'116.5
2018-Sep-22 22:00N 58°03' E 010°47'816.4
2018-Sep-22 21:31N 58°11' E 010°45'715.8
2018-Sep-22 21:03N 58°18' E 010°43'115.7
2018-Sep-22 20:59N 58°19' E 010°43'715.1
2018-Sep-22 20:30N 58°27' E 010°42'715.2
2018-Sep-22 20:03N 58°34' E 010°40'112.9
2018-Sep-22 20:00N 58°34' E 010°40'714.3
2018-Sep-22 19:30N 58°41' E 010°38'715.6
2018-Sep-22 19:03N 58°48' E 010°37'115.5
2018-Sep-22 19:00N 58°49' E 010°37'816.4
2018-Sep-22 18:30N 58°57' E 010°35'816.8
2018-Sep-22 18:03N 59°05' E 010°36'117.1
2018-Sep-22 18:00N 59°05' E 010°36'817.0
2018-Sep-22 17:30N 59°14' E 010°37'817.6
2018-Sep-22 17:03N 59°22' E 010°34'117.9
2018-Sep-22 17:00N 59°23' E 010°34'917.3
2018-Sep-22 16:30N 59°31' E 010°35'816.8
2018-Sep-22 16:03N 59°39' E 010°37'114.6
2018-Sep-22 16:00N 59°40' E 010°37'714.7
2018-Sep-22 15:30N 59°47' E 010°33'715.9
2018-Sep-22 15:03N 59°53' E 010°40'113.5
2018-Sep-22 15:00N 59°54' E 010°41'2 3.9
2018-Sep-22 14:31N 59°54' E 010°45'0 0.0
2018-Sep-22 14:01N 59°54' E 010°45'0 0.0
2018-Sep-22 13:30N 59°54' E 010°45'0 0.0
2018-Sep-22 13:03N 59°54' E 010°45'0 0.0
2018-Sep-22 13:00N 59°54' E 010°45'0 0.0
2018-Sep-22 12:29N 59°54' E 010°45'0 0.0
2018-Sep-22 12:01N 59°54' E 010°45'0 0.4
2018-Sep-22 12:00N 59°54' E 010°45'1 1.9
2018-Sep-22 11:30N 59°54' E 010°43'613.3
2018-Sep-22 11:04N 59°49' E 010°35'114.7
2018-Sep-22 11:00N 59°49' E 010°35'714.0
2018-Sep-22 10:30N 59°42' E 010°36'612.5
2018-Sep-22 10:03N 59°36' E 010°38'112.2
2018-Sep-22 10:00N 59°35' E 010°38'714.5
2018-Sep-22 09:30N 59°29' E 010°34'715.5
2018-Sep-22 09:03N 59°22' E 010°35'116.8
2018-Sep-22 09:00N 59°21' E 010°36'817.0
2018-Sep-22 08:30N 59°12' E 010°39'716.0
2018-Sep-22 08:03N 59°05' E 010°40'114.9
2018-Sep-22 08:00N 59°05' E 010°40'714.9
2018-Sep-22 07:30N 58°57' E 010°42'715.2
2018-Sep-22 07:03N 58°50' E 010°43'115.7
2018-Sep-22 07:00N 58°50' E 010°43'815.9
2018-Sep-22 06:30N 58°42' E 010°44'716.3
2018-Sep-22 06:03N 58°34' E 010°47'116.4
2018-Sep-22 06:00N 58°34' E 010°47'816.6
2018-Sep-22 05:30N 58°26' E 010°52'716.6
2018-Sep-22 05:03N 58°18' E 010°55'116.3
2018-Sep-22 05:00N 58°18' E 010°56'816.5
2018-Sep-22 04:30N 58°09' E 010°57'716.2
2018-Sep-22 04:03N 58°02' E 010°56'115.0
2018-Sep-22 04:00N 58°01' E 010°56'815.5
2018-Sep-22 03:30N 57°54' E 010°53'816.6
2018-Sep-22 03:03N 57°47' E 010°48'115.1
2018-Sep-22 03:01N 57°46' E 010°48'5 9.7
2018-Sep-22 02:30N 57°41' E 010°50'4 8.6
2018-Sep-22 02:03N 57°41' E 010°57'0 8.5
2018-Sep-22 02:00N 57°41' E 010°58'5 9.7
2018-Sep-22 01:30N 57°39' E 011°06'511.8
2018-Sep-22 01:04N 57°35' E 011°14'111.7
2018-Sep-22 01:01N 57°35' E 011°14'611.9
2018-Sep-22 00:30N 57°31' E 011°22'511.5
2018-Sep-22 00:04N 57°27' E 011°28'112.1
2018-Sep-22 00:00N 57°26' E 011°28'611.8
2018-Sep-21 23:31N 57°21' E 011°32'512.0
2018-Sep-21 23:03N 57°15' E 011°35'112.0
2018-Sep-21 23:01N 57°15' E 011°35'612.1
2018-Sep-21 22:30N 57°09' E 011°39'511.8
2018-Sep-21 22:04N 57°04' E 011°43'112.0
2018-Sep-21 21:59N 57°03' E 011°43'6012.1
2018-Sep-21 16:59N 56°09' E 012°30'713.6
2018-Sep-21 16:30N 56°04' E 012°38'613.9
2018-Sep-21 16:03N 55°58' E 012°42'114.0
2018-Sep-21 16:00N 55°58' E 012°43'713.4
2018-Sep-21 15:31N 55°51' E 012°45'613.9
2018-Sep-21 15:03N 55°45' E 012°41'113.9
2018-Sep-21 15:00N 55°44' E 012°40'3 3.4
2018-Sep-21 14:00N 55°42' E 012°36'0 0.0
2018-Sep-21 13:30N 55°42' E 012°36'0 0.0
2018-Sep-21 13:03N 55°42' E 012°36'0 0.0
2018-Sep-21 13:00N 55°42' E 012°36'0 0.0
2018-Sep-21 12:30N 55°42' E 012°36'0 0.0
2018-Sep-21 12:00N 55°42' E 012°36'0 0.0
2018-Sep-21 11:30N 55°42' E 012°36'0 0.0
2018-Sep-21 11:03N 55°42' E 012°36'0 0.0
2018-Sep-21 11:00N 55°42' E 012°36'0 0.0
2018-Sep-21 10:15N 55°42' E 012°36'0 0.0
2018-Sep-21 10:03N 55°42' E 012°36'0 0.0
2018-Sep-21 09:54N 55°42' E 012°36'0 0.0
2018-Sep-21 09:27N 55°42' E 012°36'0 0.0
2018-Sep-21 08:51N 55°42' E 012°36'0 0.0
2018-Sep-21 08:21N 55°42' E 012°36'0 0.0
2018-Sep-21 08:03N 55°42' E 012°36'0 0.0
2018-Sep-21 07:58N 55°42' E 012°36'2 5.2
2018-Sep-21 07:30N 55°44' E 012°39'613.1
2018-Sep-21 07:03N 55°49' E 012°42'011.2
2018-Sep-21 07:01N 55°50' E 012°42'713.5
2018-Sep-21 06:31N 55°57' E 012°40'715.2
2018-Sep-21 06:04N 56°03' E 012°39'116.0
2018-Sep-21 06:00N 56°04' E 012°38'816.2
2018-Sep-21 05:30N 56°10' E 012°29'716.4
2018-Sep-21 05:04N 56°17' E 012°24'116.5
2018-Sep-21 05:01N 56°18' E 012°23'1316.7
2018-Sep-21 04:15N 56°30' E 012°15'816.7
2018-Sep-21 03:45N 56°38' E 012°12'816.9
2018-Sep-21 03:17N 56°45' E 012°07'3116.8
2018-Sep-21 01:27N 57°15' E 011°50'616.7
2018-Sep-21 01:04N 57°20' E 011°44'116.7
2018-Sep-21 01:00N 57°21' E 011°44'816.7
2018-Sep-21 00:30N 57°28' E 011°36'716.3
2018-Sep-21 00:03N 57°35' E 011°29'116.7
2018-Sep-21 00:01N 57°36' E 011°28'816.7
2018-Sep-20 23:30N 57°43' E 011°22'816.8
2018-Sep-20 23:04N 57°50' E 011°17'116.7
2018-Sep-20 23:01N 57°51' E 011°16'816.8
2018-Sep-20 22:31N 57°59' E 011°11'715.9
2018-Sep-20 22:04N 58°06' E 011°07'115.3
2018-Sep-20 22:01N 58°07' E 011°07'815.2
2018-Sep-20 21:31N 58°14' E 011°01'715.4
2018-Sep-20 21:04N 58°20' E 010°57'115.5
2018-Sep-20 21:01N 58°21' E 010°57'815.2
2018-Sep-20 20:31N 58°28' E 010°52'714.8
2018-Sep-20 20:03N 58°35' E 010°49'114.3
2018-Sep-20 20:00N 58°35' E 010°49'715.1
2018-Sep-20 19:30N 58°42' E 010°44'715.8
2018-Sep-20 19:03N 58°49' E 010°40'115.9
2018-Sep-20 19:00N 58°50' E 010°40'714.8
2018-Sep-20 18:31N 58°57' E 010°38'714.6
2018-Sep-20 18:04N 59°04' E 010°39'115.0
2018-Sep-20 18:01N 59°05' E 010°38'815.7
2018-Sep-20 17:31N 59°12' E 010°37'716.4
2018-Sep-20 17:03N 59°20' E 010°35'116.4
2018-Sep-20 17:01N 59°21' E 010°35'816.7
2018-Sep-20 16:31N 59°29' E 010°34'716.6
2018-Sep-20 16:04N 59°36' E 010°38'117.1
2018-Sep-20 16:01N 59°37' E 010°37'714.0
2018-Sep-20 15:30N 59°44' E 010°34'716.2
2018-Sep-20 15:03N 59°51' E 010°36'116.2
2018-Sep-20 15:00N 59°52' E 010°37'5 4.8
2018-Sep-20 14:01N 59°54' E 010°45'0 0.0
2018-Sep-20 13:58N 59°54' E 010°45'0 0.0
2018-Sep-20 13:28N 59°54' E 010°45'0 0.0
2018-Sep-20 13:01N 59°54' E 010°45'0 0.0
2018-Sep-20 12:58N 59°54' E 010°45'0 0.0
2018-Sep-20 12:28N 59°54' E 010°45'0 0.0
2018-Sep-20 12:01N 59°54' E 010°45'0 0.0
2018-Sep-20 11:58N 59°54' E 010°45'0 0.0
2018-Sep-20 11:28N 59°54' E 010°45'0 0.0
2018-Sep-20 11:01N 59°54' E 010°45'0 0.0
2018-Sep-20 10:58N 59°54' E 010°45'0 0.0
2018-Sep-20 10:28N 59°54' E 010°45'0 0.0
2018-Sep-20 10:01N 59°54' E 010°45'0 0.0
2018-Sep-20 09:58N 59°54' E 010°45'0 0.0
2018-Sep-20 09:28N 59°54' E 010°45'0 0.0
2018-Sep-20 09:01N 59°54' E 010°45'0 0.0
2018-Sep-20 08:58N 59°54' E 010°45'0 0.0
2018-Sep-20 08:28N 59°54' E 010°45'0 0.0
2018-Sep-20 08:01N 59°54' E 010°45'0 0.0
2018-Sep-20 07:58N 59°54' E 010°45'0 0.5
2018-Sep-20 07:30N 59°54' E 010°44'612.8
2018-Sep-20 07:03N 59°50' E 010°36'115.5
2018-Sep-20 07:00N 59°49' E 010°35'714.8
2018-Sep-20 06:30N 59°42' E 010°36'714.5
2018-Sep-20 06:04N 59°36' E 010°38'117.2
2018-Sep-20 06:01N 59°35' E 010°38'917.0
2018-Sep-20 05:31N 59°27' E 010°34'817.0
2018-Sep-20 05:03N 59°19' E 010°36'117.7
2018-Sep-20 05:01N 59°18' E 010°36'917.5
2018-Sep-20 04:30N 59°09' E 010°39'716.3
2018-Sep-20 04:04N 59°02' E 010°41'115.9
2018-Sep-20 04:01N 59°01' E 010°41'815.4
2018-Sep-20 03:31N 58°54' E 010°42'715.0
2018-Sep-20 03:03N 58°47' E 010°43'115.1
2018-Sep-20 03:01N 58°46' E 010°44'816.0
2018-Sep-20 02:31N 58°38' E 010°45'716.5
2018-Sep-20 02:03N 58°31' E 010°46'116.2
2018-Sep-20 02:01N 58°30' E 010°46'816.1
2018-Sep-20 01:31N 58°22' E 010°48'816.2
2018-Sep-20 01:02N 58°14' E 010°49'116.2
2018-Sep-20 01:00N 58°14' E 010°49'816.7
2018-Sep-20 00:30N 58°06' E 010°51'816.8
2018-Sep-20 00:03N 57°58' E 010°52'116.5
2018-Sep-20 00:01N 57°57' E 010°52'816.8
2018-Sep-19 23:31N 57°49' E 010°54'715.7
2018-Sep-19 23:04N 57°42' E 010°58'115.9
2018-Sep-19 23:01N 57°42' E 010°59'815.6
2018-Sep-19 22:31N 57°36' E 011°10'715.9
2018-Sep-19 22:04N 57°32' E 011°20'116.1
2018-Sep-19 22:01N 57°31' E 011°21'816.0
2018-Sep-19 21:31N 57°24' E 011°29'716.6
2018-Sep-19 21:04N 57°17' E 011°34'116.9
2018-Sep-19 21:01N 57°17' E 011°34'817.0
2018-Sep-19 20:31N 57°09' E 011°40'716.4
2018-Sep-19 20:03N 57°02' E 011°45'117.0
2018-Sep-19 20:00N 57°01' E 011°45'816.8
2018-Sep-19 19:31N 56°53' E 011°50'4816.2
2018-Sep-19 16:32N 56°10' E 012°30'116.8
2018-Sep-19 16:28N 56°09' E 012°31'716.6
2018-Sep-19 16:03N 56°04' E 012°39'116.3
2018-Sep-19 16:01N 56°03' E 012°39'816.7
2018-Sep-19 15:31N 55°55' E 012°44'716.5
2018-Sep-19 15:04N 55°48' E 012°43'115.9
2018-Sep-19 15:01N 55°47' E 012°42'6 6.6
2018-Sep-19 14:03N 55°42' E 012°36'0 0.0
2018-Sep-19 13:28N 55°42' E 012°36'0 0.0
2018-Sep-19 13:01N 55°42' E 012°36'0 0.0
2018-Sep-19 12:58N 55°42' E 012°36'0 0.0
2018-Sep-19 12:28N 55°42' E 012°36'0 0.0
2018-Sep-19 12:01N 55°42' E 012°36'0 0.0
2018-Sep-19 11:55N 55°42' E 012°36'0 0.0
2018-Sep-19 11:28N 55°42' E 012°36'0 0.0
2018-Sep-19 11:01N 55°42' E 012°36'0 0.0
2018-Sep-19 10:58N 55°42' E 012°36'0 0.0
2018-Sep-19 10:28N 55°42' E 012°36'0 0.0
2018-Sep-19 10:01N 55°42' E 012°36'0 0.0
2018-Sep-19 09:58N 55°42' E 012°36'0 0.0
2018-Sep-19 09:28N 55°42' E 012°36'0 0.0
2018-Sep-19 08:58N 55°42' E 012°36'0 0.0
2018-Sep-19 08:28N 55°42' E 012°36'0 0.0
2018-Sep-19 08:01N 55°42' E 012°36'0 0.0
2018-Sep-19 07:58N 55°42' E 012°36'0 0.8
2018-Sep-19 07:31N 55°42' E 012°36'510.8
2018-Sep-19 07:03N 55°46' E 012°41'114.6
2018-Sep-19 07:00N 55°47' E 012°42'714.9
2018-Sep-19 06:30N 55°54' E 012°39'715.3
2018-Sep-19 06:03N 56°01' E 012°40'116.7
2018-Sep-19 06:00N 56°02' E 012°39'816.3
2018-Sep-19 05:30N 56°08' E 012°30'716.2
2018-Sep-19 05:03N 56°15' E 012°25'116.1
2018-Sep-19 05:00N 56°16' E 012°25'6016.7
2018-Sep-19 01:24N 57°13' E 011°53'617.8
2018-Sep-19 01:03N 57°18' E 011°45'117.7
2018-Sep-19 01:00N 57°19' E 011°44'917.9
2018-Sep-19 00:30N 57°26' E 011°34'817.9
2018-Sep-19 00:03N 57°32' E 011°25'117.6
2018-Sep-19 00:00N 57°33' E 011°24'917.9
2018-Sep-18 23:30N 57°40' E 011°14'817.6
2018-Sep-18 23:03N 57°47' E 011°06'117.2
2018-Sep-18 23:00N 57°48' E 011°06'816.8
2018-Sep-18 22:30N 57°56' E 011°00'716.6
2018-Sep-18 22:03N 58°03' E 010°56'116.1
2018-Sep-18 22:00N 58°04' E 010°55'816.2
2018-Sep-18 21:30N 58°11' E 010°50'716.1
2018-Sep-18 21:03N 58°18' E 010°45'116.2
2018-Sep-18 21:00N 58°19' E 010°45'815.9
2018-Sep-18 20:30N 58°26' E 010°39'715.0
2018-Sep-18 20:03N 58°33' E 010°39'114.5
2018-Sep-18 20:00N 58°34' E 010°39'714.9
2018-Sep-18 19:30N 58°41' E 010°38'715.6
2018-Sep-18 19:03N 58°48' E 010°37'115.7
2018-Sep-18 19:00N 58°49' E 010°37'815.8
2018-Sep-18 18:30N 58°57' E 010°38'716.1
2018-Sep-18 18:03N 59°04' E 010°38'116.1
2018-Sep-18 18:00N 59°05' E 010°38'815.8
2018-Sep-18 17:30N 59°13' E 010°37'716.2
2018-Sep-18 17:03N 59°20' E 010°35'116.7
2018-Sep-18 17:00N 59°21' E 010°35'816.3
2018-Sep-18 16:30N 59°29' E 010°34'716.2
2018-Sep-18 16:03N 59°36' E 010°38'116.7
2018-Sep-18 16:00N 59°37' E 010°37'713.9
2018-Sep-18 15:30N 59°44' E 010°34'715.8
2018-Sep-18 15:04N 59°51' E 010°35'116.6
2018-Sep-18 15:01N 59°51' E 010°36'5 5.3
2018-Sep-18 14:01N 59°54' E 010°45'0 0.0
2018-Sep-18 13:58N 59°54' E 010°45'0 0.0
2018-Sep-18 13:28N 59°54' E 010°45'0 0.0
2018-Sep-18 13:01N 59°54' E 010°45'0 0.0
2018-Sep-18 12:58N 59°54' E 010°45'0 0.0
2018-Sep-18 12:28N 59°54' E 010°45'0 0.0
2018-Sep-18 12:01N 59°54' E 010°45'0 0.0
2018-Sep-18 11:58N 59°54' E 010°45'0 0.0
2018-Sep-18 11:28N 59°54' E 010°45'0 0.0
2018-Sep-18 11:01N 59°54' E 010°45'0 0.0
2018-Sep-18 10:58N 59°54' E 010°45'0 0.0
2018-Sep-18 10:28N 59°54' E 010°45'0 0.0
2018-Sep-18 10:01N 59°54' E 010°45'0 0.0
2018-Sep-18 09:58N 59°54' E 010°45'0 0.0
2018-Sep-18 09:28N 59°54' E 010°45'0 0.0
2018-Sep-18 09:01N 59°54' E 010°45'0 0.0
2018-Sep-18 08:58N 59°54' E 010°45'0 0.0
2018-Sep-18 08:28N 59°54' E 010°45'0 0.0
2018-Sep-18 08:01N 59°54' E 010°45'0 0.1
2018-Sep-18 07:58N 59°54' E 010°45'0 0.4
2018-Sep-18 07:30N 59°54' E 010°44'613.3
2018-Sep-18 07:03N 59°50' E 010°36'115.7
2018-Sep-18 07:00N 59°49' E 010°35'714.8
2018-Sep-18 06:30N 59°42' E 010°36'613.8
2018-Sep-18 06:03N 59°36' E 010°38'115.5
2018-Sep-18 06:00N 59°35' E 010°38'815.4
2018-Sep-18 05:30N 59°28' E 010°34'715.6
2018-Sep-18 05:03N 59°21' E 010°36'116.2
2018-Sep-18 05:00N 59°20' E 010°36'816.2
2018-Sep-18 04:30N 59°12' E 010°39'716.1
2018-Sep-18 04:03N 59°05' E 010°41'116.1
2018-Sep-18 04:00N 59°04' E 010°41'816.1
2018-Sep-18 03:30N 58°56' E 010°43'715.8
2018-Sep-18 03:03N 58°49' E 010°46'115.9
2018-Sep-18 03:00N 58°48' E 010°46'816.0
2018-Sep-18 02:30N 58°40' E 010°48'716.2
2018-Sep-18 02:03N 58°33' E 010°51'116.5
2018-Sep-18 02:00N 58°32' E 010°51'816.5
2018-Sep-18 01:30N 58°24' E 010°56'816.7
2018-Sep-18 01:03N 58°17' E 011°01'117.0
2018-Sep-18 01:00N 58°16' E 011°01'917.1
2018-Sep-18 00:29N 58°08' E 011°06'716.9
2018-Sep-18 00:03N 58°01' E 011°11'116.6
2018-Sep-18 00:00N 58°00' E 011°11'816.5
2018-Sep-17 23:29N 57°52' E 011°16'716.5
2018-Sep-17 23:03N 57°45' E 011°21'116.7
2018-Sep-17 23:00N 57°45' E 011°22'816.3
2018-Sep-17 22:30N 57°37' E 011°28'716.1
2018-Sep-17 22:03N 57°31' E 011°33'116.0
2018-Sep-17 22:00N 57°30' E 011°33'815.6
2018-Sep-17 21:30N 57°23' E 011°41'816.3
2018-Sep-17 21:03N 57°17' E 011°49'115.9
2018-Sep-17 21:00N 57°16' E 011°49'816.3
2018-Sep-17 20:30N 57°09' E 011°56'716.3
2018-Sep-17 20:03N 57°02' E 012°01'116.1
2018-Sep-17 20:00N 57°02' E 012°02'815.9
2018-Sep-17 19:30N 56°54' E 012°08'716.2
2018-Sep-17 19:03N 56°47' E 012°12'116.1
2018-Sep-17 19:00N 56°46' E 012°12'816.1
2018-Sep-17 18:30N 56°39' E 012°15'3015.7
2018-Sep-17 16:35N 56°10' E 012°31'415.2
2018-Sep-17 16:21N 56°07' E 012°34'414.3
2018-Sep-17 16:03N 56°03' E 012°39'113.7
2018-Sep-17 16:00N 56°03' E 012°40'714.4
2018-Sep-17 15:31N 55°56' E 012°43'715.0
2018-Sep-17 15:04N 55°49' E 012°44'115.0
2018-Sep-17 15:01N 55°49' E 012°43'713.5
2018-Sep-17 14:30N 55°43' E 012°37'1 1.8
2018-Sep-17 13:59N 55°42' E 012°36'0 0.0
2018-Sep-17 13:29N 55°42' E 012°36'0 0.0
2018-Sep-17 12:56N 55°42' E 012°36'0 0.0
2018-Sep-17 12:29N 55°42' E 012°36'0 0.0
2018-Sep-17 12:02N 55°42' E 012°36'0 0.0
2018-Sep-17 11:56N 55°42' E 012°36'0 0.0
2018-Sep-17 11:29N 55°42' E 012°36'0 0.0
2018-Sep-17 11:02N 55°42' E 012°36'0 0.0
2018-Sep-17 10:59N 55°42' E 012°36'0 0.0
2018-Sep-17 10:29N 55°42' E 012°36'0 0.0
2018-Sep-17 09:56N 55°42' E 012°36'0 0.0
2018-Sep-17 09:29N 55°42' E 012°36'0 0.0
2018-Sep-17 09:02N 55°42' E 012°36'0 0.0
2018-Sep-17 08:59N 55°42' E 012°36'0 0.0
2018-Sep-17 08:29N 55°42' E 012°36'0 0.0
2018-Sep-17 08:02N 55°42' E 012°36'0 0.0
2018-Sep-17 07:59N 55°42' E 012°36'0 0.8
2018-Sep-17 07:31N 55°42' E 012°36'510.4
2018-Sep-17 07:03N 55°46' E 012°41'114.1
2018-Sep-17 07:00N 55°47' E 012°41'714.1
2018-Sep-17 06:30N 55°54' E 012°39'715.0
2018-Sep-17 06:03N 56°00' E 012°40'115.3
2018-Sep-17 06:00N 56°01' E 012°40'714.7
2018-Sep-17 05:30N 56°07' E 012°31'715.4
2018-Sep-17 05:03N 56°13' E 012°26'215.5
2018-Sep-17 04:57N 56°15' E 012°25'6015.5
2018-Sep-17 01:06N 57°12' E 011°52'116.1
2018-Sep-17 01:03N 57°13' E 011°52'216.0
2018-Sep-17 00:55N 57°14' E 011°50'716.3
2018-Sep-17 00:31N 57°20' E 011°44'817.1
2018-Sep-17 00:03N 57°27' E 011°36'117.4
2018-Sep-17 00:01N 57°28' E 011°35'917.3
2018-Sep-16 23:31N 57°35' E 011°28'817.4
2018-Sep-16 23:04N 57°42' E 011°22'117.4
2018-Sep-16 23:01N 57°43' E 011°21'917.2
2018-Sep-16 22:30N 57°51' E 011°15'816.9
2018-Sep-16 22:03N 57°58' E 011°12'116.9
2018-Sep-16 22:00N 57°59' E 011°11'816.6
2018-Sep-16 21:30N 58°07' E 011°07'715.9
2018-Sep-16 21:03N 58°14' E 011°03'115.8
2018-Sep-16 21:00N 58°15' E 011°03'815.4
2018-Sep-16 20:30N 58°22' E 010°58'715.2
2018-Sep-16 20:02N 58°29' E 010°55'115.3
2018-Sep-16 20:00N 58°30' E 010°54'815.5
2018-Sep-16 19:30N 58°37' E 010°50'715.4
2018-Sep-16 19:04N 58°44' E 010°47'115.2
2018-Sep-16 19:01N 58°44' E 010°47'815.2
2018-Sep-16 18:31N 58°52' E 010°44'715.6
2018-Sep-16 18:04N 58°59' E 010°42'115.8
2018-Sep-16 18:01N 58°60' E 010°42'816.1
2018-Sep-16 17:30N 59°08' E 010°39'816.8
2018-Sep-16 17:03N 59°15' E 010°37'117.1
2018-Sep-16 17:00N 59°16' E 010°36'816.5
2018-Sep-16 16:30N 59°24' E 010°33'716.1
2018-Sep-16 16:03N 59°31' E 010°35'116.8
2018-Sep-16 16:00N 59°32' E 010°36'815.8
2018-Sep-16 15:30N 59°40' E 010°37'715.1
2018-Sep-16 15:03N 59°46' E 010°33'117.2
2018-Sep-16 15:00N 59°47' E 010°34'9 9.0
2018-Sep-16 14:01N 59°54' E 010°45'0 0.0
2018-Sep-16 13:28N 59°54' E 010°45'0 0.0
2018-Sep-16 13:01N 59°54' E 010°45'0 0.0
2018-Sep-16 12:58N 59°54' E 010°45'0 0.0
2018-Sep-16 12:28N 59°54' E 010°45'0 0.0
2018-Sep-16 12:01N 59°54' E 010°45'0 0.0
2018-Sep-16 11:58N 59°54' E 010°45'0 0.0
2018-Sep-16 11:28N 59°54' E 010°45'0 0.0
2018-Sep-16 11:01N 59°54' E 010°45'0 0.0
2018-Sep-16 10:58N 59°54' E 010°45'0 0.0
2018-Sep-16 10:28N 59°54' E 010°45'0 0.0
2018-Sep-16 10:01N 59°54' E 010°45'0 0.0
2018-Sep-16 09:58N 59°54' E 010°45'0 0.0
2018-Sep-16 09:28N 59°54' E 010°45'0 0.0
2018-Sep-16 09:01N 59°54' E 010°45'0 0.0
2018-Sep-16 08:58N 59°54' E 010°45'0 0.0
2018-Sep-16 08:28N 59°54' E 010°45'0 0.0
2018-Sep-16 08:01N 59°54' E 010°45'0 0.0
2018-Sep-16 07:58N 59°54' E 010°45'1 1.4
2018-Sep-16 07:28N 59°54' E 010°43'613.7
2018-Sep-16 07:04N 59°50' E 010°36'115.2
2018-Sep-16 07:01N 59°49' E 010°35'714.6
2018-Sep-16 06:31N 59°42' E 010°36'613.7
2018-Sep-16 06:03N 59°36' E 010°38'115.8
2018-Sep-16 06:00N 59°35' E 010°38'815.9
2018-Sep-16 05:30N 59°27' E 010°34'715.8
2018-Sep-16 05:03N 59°20' E 010°36'116.0
2018-Sep-16 05:00N 59°19' E 010°36'816.0
2018-Sep-16 04:31N 59°12' E 010°39'715.6
2018-Sep-16 04:03N 59°05' E 010°41'115.7
2018-Sep-16 04:00N 59°04' E 010°41'816.1
2018-Sep-16 03:30N 58°56' E 010°43'715.7
2018-Sep-16 03:03N 58°49' E 010°44'115.9
2018-Sep-16 03:01N 58°48' E 010°45'815.8
2018-Sep-16 02:30N 58°40' E 010°47'715.8
2018-Sep-16 02:03N 58°33' E 010°50'116.0
2018-Sep-16 02:00N 58°33' E 010°51'816.3
2018-Sep-16 01:30N 58°25' E 010°56'716.3
2018-Sep-16 01:03N 58°18' E 010°60'116.7
2018-Sep-16 01:00N 58°17' E 011°00'817.0
2018-Sep-16 00:30N 58°09' E 011°05'816.8
2018-Sep-16 00:03N 58°02' E 011°09'116.3
2018-Sep-16 00:00N 58°01' E 011°10'816.1
2018-Sep-15 23:30N 57°53' E 011°14'716.2
2018-Sep-15 23:03N 57°46' E 011°18'115.8
2018-Sep-15 23:00N 57°46' E 011°19'815.9
2018-Sep-15 22:30N 57°38' E 011°23'715.8
2018-Sep-15 22:03N 57°31' E 011°27'116.1
2018-Sep-15 22:00N 57°30' E 011°27'816.0
2018-Sep-15 21:30N 57°23' E 011°32'716.1
2018-Sep-15 21:03N 57°16' E 011°36'116.3
2018-Sep-15 21:00N 57°15' E 011°36'816.4
2018-Sep-15 20:30N 57°07' E 011°41'816.5
2018-Sep-15 20:02N 56°60' E 011°46'5516.3
2018-Sep-15 16:38N 56°10' E 012°30'316.6
2018-Sep-15 16:28N 56°08' E 012°33'615.5
2018-Sep-15 16:04N 56°03' E 012°40'114.7
2018-Sep-15 16:01N 56°02' E 012°40'815.0
2018-Sep-15 15:30N 55°55' E 012°44'714.0
2018-Sep-15 15:00N 55°48' E 012°43'7 7.1
2018-Sep-15 14:00N 55°42' E 012°36'0 0.0
2018-Sep-15 13:27N 55°42' E 012°36'0 0.0
2018-Sep-15 13:03N 55°42' E 012°36'0 0.0
2018-Sep-15 13:00N 55°42' E 012°36'0 0.0
2018-Sep-15 12:30N 55°42' E 012°36'0 0.0
2018-Sep-15 12:00N 55°42' E 012°36'0 0.0
2018-Sep-15 11:30N 55°42' E 012°36'0 0.0
2018-Sep-15 11:00N 55°42' E 012°36'0 0.0
2018-Sep-15 10:30N 55°42' E 012°36'0 0.0
2018-Sep-15 10:03N 55°42' E 012°36'0 0.0
2018-Sep-15 10:00N 55°42' E 012°36'0 0.0
2018-Sep-15 09:30N 55°42' E 012°36'0 0.0
2018-Sep-15 09:03N 55°42' E 012°36'0 0.0
2018-Sep-15 09:00N 55°42' E 012°36'0 0.0
2018-Sep-15 08:30N 55°42' E 012°36'0 0.0
2018-Sep-15 08:03N 55°42' E 012°36'0 0.0
2018-Sep-15 08:00N 55°42' E 012°36'0 0.7
2018-Sep-15 07:30N 55°42' E 012°36'511.7
2018-Sep-15 07:03N 55°47' E 012°41'115.6
2018-Sep-15 07:00N 55°47' E 012°42'815.0
2018-Sep-15 06:30N 55°55' E 012°39'715.5
2018-Sep-15 06:04N 56°02' E 012°40'116.1
2018-Sep-15 06:01N 56°03' E 012°39'816.5
2018-Sep-15 05:30N 56°09' E 012°30'716.2
2018-Sep-15 05:03N 56°16' E 012°25'116.3
2018-Sep-15 05:00N 56°16' E 012°24'6017.1
2018-Sep-15 01:30N 57°14' E 011°52'818.3
2018-Sep-15 01:03N 57°20' E 011°44'118.5
2018-Sep-15 01:00N 57°21' E 011°43'918.4
2018-Sep-15 00:30N 57°29' E 011°33'818.0
2018-Sep-15 00:03N 57°36' E 011°25'117.5
2018-Sep-15 00:00N 57°37' E 011°25'917.1
2018-Sep-14 23:30N 57°45' E 011°21'817.0
2018-Sep-14 23:03N 57°52' E 011°15'116.5
2018-Sep-14 23:00N 57°53' E 011°15'815.9
2018-Sep-14 22:30N 58°00' E 011°11'715.0
2018-Sep-14 22:03N 58°07' E 011°07'114.8
2018-Sep-14 22:00N 58°08' E 011°07'714.6
2018-Sep-14 21:30N 58°14' E 011°02'613.6
2018-Sep-14 21:03N 58°20' E 010°60'113.4
2018-Sep-14 21:00N 58°21' E 010°59'  

Dump ship's entire track history